Time;durP1;ratioP1;P1;durP2;ratioP2;P2;SDS_P1;SDS_P2;PMS_P1;PMS_P2;Temp;Humidity;BMP_temperature;BMP_pressure;BME280_temperature;BME280_humidity;BME280_pressure;Samples;Min_cycle;Max_cycle;Signal;HPM_P1;HPM_P2
2023/08/23 00:01:51;;;;;;;8.52;3.55;;;16.70;99.90;;;;;;5007844;28;20106;-57
2023/08/23 00:04:19;;;;;;;7.70;3.83;;;16.80;99.90;;;;;;5017041;28;20157;-58
2023/08/23 00:06:45;;;;;;;8.50;3.60;;;16.70;99.90;;;;;;5023183;28;20038;-57
2023/08/23 00:09:10;;;;;;;7.10;3.42;;;16.70;99.90;;;;;;5007306;28;20026;-57
2023/08/23 00:11:36;;;;;;;9.20;3.63;;;16.50;99.90;;;;;;5007542;28;20045;-58
2023/08/23 00:14:02;;;;;;;10.73;3.90;;;16.60;99.90;;;;;;5007405;28;20038;-57
2023/08/23 00:16:28;;;;;;;7.28;3.70;;;16.60;99.90;;;;;;5005988;28;20038;-56
2023/08/23 00:18:54;;;;;;;6.45;3.60;;;16.50;99.90;;;;;;5012259;28;20083;-56
2023/08/23 00:21:19;;;;;;;13.18;4.00;;;16.60;99.90;;;;;;5004848;28;20052;-56
2023/08/23 00:23:45;;;;;;;10.98;4.22;;;16.50;99.90;;;;;;5008734;28;20037;-57
2023/08/23 00:26:13;;;;;;;6.82;3.60;;;16.60;99.90;;;;;;5008752;28;20099;-56
2023/08/23 00:28:40;;;;;;;13.95;4.10;;;16.60;99.90;;;;;;5004132;28;20506;-61
2023/08/23 00:31:06;;;;;;;7.43;3.72;;;16.60;99.90;;;;;;5005307;28;20087;-56
2023/08/23 00:33:32;;;;;;;11.50;3.92;;;16.50;99.90;;;;;;5009294;28;20041;-56
2023/08/23 00:35:58;;;;;;;6.78;3.60;;;16.50;99.90;;;;;;5001565;28;20207;-57
2023/08/23 00:38:23;;;;;;;9.55;3.78;;;16.50;99.90;;;;;;4998958;28;20041;-58
2023/08/23 00:40:49;;;;;;;8.02;3.70;;;16.60;99.90;;;;;;5014196;28;20045;-57
2023/08/23 00:43:15;;;;;;;8.30;3.75;;;16.50;99.90;;;;;;5009032;28;20144;-56
2023/08/23 00:45:41;;;;;;;8.48;3.83;;;16.40;99.90;;;;;;5013496;28;20121;-56
2023/08/23 00:48:09;;;;;;;7.97;3.70;;;16.40;99.90;;;;;;5021768;28;20037;-56
2023/08/23 00:50:35;;;;;;;8.52;4.00;;;16.50;99.90;;;;;;5007258;28;20033;-55
2023/08/23 00:53:02;;;;;;;7.38;3.58;;;16.50;99.90;;;;;;5026789;28;20045;-57
2023/08/23 00:55:28;;;;;;;12.35;3.90;;;16.50;99.90;;;;;;5011170;28;20502;-57
2023/08/23 00:57:54;;;;;;;7.38;3.45;;;16.50;99.90;;;;;;5005160;28;20065;-57
2023/08/23 01:00:20;;;;;;;6.53;3.92;;;16.40;99.90;;;;;;5002314;28;20173;-56
2023/08/23 01:02:45;;;;;;;7.60;3.50;;;16.30;99.90;;;;;;5004859;28;20034;-59
2023/08/23 01:05:12;;;;;;;9.43;3.80;;;16.20;99.90;;;;;;5013868;28;20043;-57
2023/08/23 01:07:49;;;;;;;9.05;3.83;;;16.40;99.90;;;;;;5013217;28;20124;-56
2023/08/23 01:10:41;;;;;;;5.65;3.58;;;16.30;99.90;;;;;;5008557;28;20038;-57
2023/08/23 01:13:48;;;;;;;5.63;3.72;;;16.20;99.90;;;;;;5007621;28;20048;-57
2023/08/23 01:16:15;;;;;;;9.93;4.47;;;16.20;99.90;;;;;;4996299;28;20037;-56
2023/08/23 01:18:42;;;;;;;8.98;3.88;;;16.20;99.90;;;;;;5005984;28;20045;-56
2023/08/23 01:21:10;;;;;;;7.72;4.18;;;16.20;99.90;;;;;;4998853;28;20038;-57
2023/08/23 01:23:37;;;;;;;8.45;4.32;;;16.20;99.90;;;;;;5006491;28;20173;-56
2023/08/23 01:26:02;;;;;;;9.40;4.30;;;16.30;99.90;;;;;;5000156;28;20113;-56
2023/08/23 01:28:28;;;;;;;6.05;3.75;;;16.20;99.90;;;;;;5009178;28;20631;-56
2023/08/23 01:30:59;;;;;;;8.35;4.20;;;16.20;99.90;;;;;;5022236;28;20029;-57
2023/08/23 01:33:37;;;;;;;8.15;3.92;;;16.30;99.90;;;;;;5015105;28;20066;-56
2023/08/23 01:36:09;;;;;;;6.40;4.50;;;16.20;99.90;;;;;;5006497;28;20030;-55
2023/08/23 01:38:36;;;;;;;7.70;4.10;;;16.20;99.90;;;;;;5003364;28;20603;-57
2023/08/23 01:41:03;;;;;;;9.52;4.25;;;16.10;99.90;;;;;;5005704;28;20092;-57
2023/08/23 01:43:29;;;;;;;6.50;3.85;;;16.10;99.90;;;;;;5005004;28;20395;-55
2023/08/23 01:45:54;;;;;;;8.00;3.75;;;16.20;99.90;;;;;;4996277;28;20695;-56
2023/08/23 01:48:20;;;;;;;11.70;4.35;;;16.00;99.90;;;;;;5023242;28;20034;-57
2023/08/23 01:50:45;;;;;;;8.60;4.30;;;15.90;99.90;;;;;;5013834;28;20029;-56
2023/08/23 01:53:11;;;;;;;11.05;4.68;;;16.00;99.90;;;;;;5008180;28;20528;-58
2023/08/23 01:55:37;;;;;;;7.47;4.40;;;16.00;99.90;;;;;;5006923;28;20088;-58
2023/08/23 01:58:02;;;;;;;11.30;5.10;;;16.10;99.90;;;;;;4993389;28;20465;-57
2023/08/23 02:00:28;;;;;;;8.15;4.32;;;16.20;99.90;;;;;;5004049;28;20042;-60
2023/08/23 02:02:54;;;;;;;8.32;5.03;;;16.10;99.90;;;;;;5003503;28;20030;-56
2023/08/23 02:05:19;;;;;;;11.98;4.78;;;16.00;99.90;;;;;;5010615;28;20156;-57
2023/08/23 02:07:45;;;;;;;7.68;4.55;;;16.00;99.90;;;;;;5000082;28;20035;-57
2023/08/23 02:10:10;;;;;;;9.77;4.43;;;16.00;99.90;;;;;;4995870;28;20045;-57
2023/08/23 02:12:36;;;;;;;8.85;4.60;;;16.00;99.90;;;;;;4993861;28;20038;-57
2023/08/23 02:15:01;;;;;;;10.70;4.60;;;15.90;99.90;;;;;;5010183;28;20098;-57
2023/08/23 02:17:27;;;;;;;7.85;4.50;;;15.90;99.90;;;;;;5004639;28;20030;-57
2023/08/23 02:19:53;;;;;;;8.30;4.55;;;16.00;99.90;;;;;;5000038;28;20393;-57
2023/08/23 02:22:18;;;;;;;9.93;4.53;;;16.00;99.90;;;;;;5003373;28;20565;-57
2023/08/23 02:24:44;;;;;;;9.65;4.85;;;16.10;99.90;;;;;;5006343;28;20049;-58
2023/08/23 02:27:09;;;;;;;7.35;4.68;;;16.10;99.90;;;;;;4998807;28;20042;-57
2023/08/23 02:29:35;;;;;;;9.38;5.63;;;16.10;99.90;;;;;;5008239;28;20181;-57
2023/08/23 02:32:00;;;;;;;9.15;5.20;;;16.00;99.90;;;;;;5000244;28;20433;-55
2023/08/23 02:34:26;;;;;;;12.20;5.47;;;16.00;99.90;;;;;;4999450;28;20046;-57
2023/08/23 02:36:51;;;;;;;7.68;4.95;;;15.90;99.90;;;;;;5001013;28;20557;-58
2023/08/23 02:39:19;;;;;;;8.02;4.78;;;16.00;99.90;;;;;;5006668;28;20049;-58
2023/08/23 02:41:44;;;;;;;8.57;5.07;;;15.90;99.90;;;;;;5010128;28;20034;-57
2023/08/23 02:44:10;;;;;;;11.48;5.03;;;15.80;99.90;;;;;;5011179;28;20257;-57
2023/08/23 02:46:35;;;;;;;9.73;4.75;;;15.80;99.90;;;;;;5017583;28;20053;-57
2023/08/23 02:49:01;;;;;;;12.95;5.20;;;15.90;99.90;;;;;;5011877;28;20030;-57
2023/08/23 02:51:27;;;;;;;8.07;4.75;;;15.90;99.90;;;;;;5004742;28;20033;-57
2023/08/23 02:53:52;;;;;;;7.93;4.78;;;15.90;99.90;;;;;;5012413;28;20040;-57
2023/08/23 02:56:18;;;;;;;6.47;4.50;;;15.80;99.90;;;;;;5004528;28;20606;-56
2023/08/23 02:58:43;;;;;;;9.35;4.90;;;15.90;99.90;;;;;;5003349;28;20088;-58
2023/08/23 03:01:09;;;;;;;10.57;4.82;;;15.90;99.90;;;;;;5012544;28;20025;-56
2023/08/23 03:03:35;;;;;;;10.05;5.22;;;16.00;99.90;;;;;;5013473;28;20053;-57
2023/08/23 03:06:00;;;;;;;12.25;5.07;;;15.80;99.90;;;;;;4994343;28;20053;-57
2023/08/23 03:08:26;;;;;;;9.35;4.60;;;15.80;99.90;;;;;;5005116;28;20386;-56
2023/08/23 03:11:03;;;;;;;12.00;5.05;;;15.90;99.90;;;;;;4999719;28;20053;-57
2023/08/23 03:13:29;;;;;;;7.75;5.15;;;15.90;99.90;;;;;;5001189;28;20034;-56
2023/08/23 03:15:54;;;;;;;9.05;4.63;;;15.80;99.90;;;;;;4998005;28;20366;-57
2023/08/23 03:18:20;;;;;;;9.48;4.15;;;15.70;99.90;;;;;;5003772;28;20045;-56
2023/08/23 03:20:47;;;;;;;5.97;3.70;;;15.80;99.90;;;;;;5023281;28;20287;-57
2023/08/23 03:23:13;;;;;;;5.70;3.45;;;15.90;99.90;;;;;;5006865;28;20105;-60
2023/08/23 03:25:38;;;;;;;7.20;3.53;;;16.00;99.90;;;;;;5003496;28;20200;-57
2023/08/23 03:28:04;;;;;;;7.57;3.50;;;15.90;99.90;;;;;;5002129;28;20037;-56
2023/08/23 03:30:30;;;;;;;13.32;4.30;;;15.80;99.90;;;;;;5009711;28;20042;-56
2023/08/23 03:32:55;;;;;;;8.10;4.20;;;15.60;99.90;;;;;;4997359;28;20030;-56
2023/08/23 03:35:21;;;;;;;11.55;4.57;;;16.00;99.90;;;;;;5002599;28;21745;-55
2023/08/23 03:37:46;;;;;;;8.50;4.78;;;15.70;99.90;;;;;;5013025;28;20057;-55
2023/08/23 03:40:12;;;;;;;8.10;4.20;;;15.60;99.90;;;;;;5008818;28;20029;-57
2023/08/23 03:42:38;;;;;;;9.05;4.20;;;15.60;99.90;;;;;;5016728;28;20397;-57
2023/08/23 03:45:03;;;;;;;7.95;4.28;;;15.60;99.90;;;;;;5019557;28;20037;-57
2023/08/23 03:47:30;;;;;;;10.05;4.13;;;15.60;99.90;;;;;;5022052;28;20484;-57
2023/08/23 03:49:56;;;;;;;8.52;4.18;;;15.60;99.90;;;;;;5022969;28;20045;-56
2023/08/23 03:52:21;;;;;;;10.13;4.10;;;15.60;99.90;;;;;;5022416;28;20637;-57
2023/08/23 03:54:47;;;;;;;7.15;3.70;;;15.60;99.90;;;;;;5023331;28;20084;-56
2023/08/23 03:57:13;;;;;;;11.52;4.20;;;15.50;99.90;;;;;;5013455;28;20034;-56
2023/08/23 03:59:38;;;;;;;10.73;4.90;;;15.40;99.90;;;;;;5003908;28;20570;-56
2023/08/23 04:02:04;;;;;;;8.80;4.25;;;15.40;99.90;;;;;;4998860;28;20145;-56
2023/08/23 04:04:29;;;;;;;9.55;4.93;;;15.60;99.90;;;;;;5000901;28;20667;-57
2023/08/23 04:06:55;;;;;;;11.25;5.30;;;15.50;99.90;;;;;;5006455;28;20044;-56
2023/08/23 04:09:21;;;;;;;9.30;5.28;;;15.50;99.90;;;;;;5031062;28;20045;-56
2023/08/23 04:11:46;;;;;;;13.13;5.10;;;15.30;99.90;;;;;;5007069;28;20045;-57
2023/08/23 04:14:12;;;;;;;9.98;4.80;;;15.40;99.90;;;;;;5014843;28;20489;-57
2023/08/23 04:16:38;;;;;;;7.03;4.22;;;15.40;99.90;;;;;;5001931;28;20406;-56
2023/08/23 04:19:03;;;;;;;9.57;4.80;;;15.50;99.90;;;;;;5001961;28;20057;-57
2023/08/23 04:21:29;;;;;;;9.20;4.90;;;15.50;99.90;;;;;;5004605;28;20125;-57
2023/08/23 04:23:54;;;;;;;10.50;4.93;;;15.40;99.90;;;;;;5006556;28;20490;-57
2023/08/23 04:26:20;;;;;;;8.40;4.65;;;15.40;99.90;;;;;;5007389;28;20030;-57
2023/08/23 04:28:47;;;;;;;9.73;5.43;;;15.30;99.90;;;;;;5014925;28;20115;-56
2023/08/23 04:31:12;;;;;;;13.30;6.05;;;15.30;99.90;;;;;;5002273;28;20030;-57
2023/08/23 04:33:38;;;;;;;13.90;6.05;;;15.40;99.90;;;;;;5008479;28;20049;-56
2023/08/23 04:36:04;;;;;;;12.35;5.93;;;15.40;99.90;;;;;;5009806;28;20030;-57
2023/08/23 04:38:30;;;;;;;15.63;6.68;;;15.40;99.90;;;;;;5013343;28;20125;-56
2023/08/23 04:41:03;;;;;;;14.38;6.50;;;15.40;99.90;;;;;;5006920;28;20128;-57
2023/08/23 04:43:28;;;;;;;12.85;5.55;;;15.40;99.90;;;;;;5013531;28;20116;-57
2023/08/23 04:45:55;;;;;;;8.85;4.90;;;15.40;99.90;;;;;;5018630;28;20125;-57
2023/08/23 04:48:21;;;;;;;10.32;4.70;;;15.30;99.90;;;;;;4996323;28;20041;-56
2023/08/23 04:50:51;;;;;;;11.35;5.32;;;15.30;99.90;;;;;;5026630;28;20180;-56
2023/08/23 04:53:16;;;;;;;9.48;4.90;;;15.40;99.90;;;;;;5001820;28;20502;-56
2023/08/23 04:55:42;;;;;;;12.95;4.80;;;15.40;99.90;;;;;;5008047;28;20077;-57
2023/08/23 04:58:08;;;;;;;7.70;5.15;;;15.40;99.90;;;;;;5003723;28;20160;-55
2023/08/23 05:00:34;;;;;;;13.82;5.22;;;15.10;99.90;;;;;;5005864;28;20120;-56
2023/08/23 05:02:59;;;;;;;13.85;6.18;;;15.20;99.90;;;;;;5011492;28;20037;-57
2023/08/23 05:05:25;;;;;;;8.27;5.43;;;15.20;99.90;;;;;;5014240;28;20575;-57
2023/08/23 05:07:50;;;;;;;10.70;6.38;;;15.30;99.90;;;;;;5006815;28;20034;-56
2023/08/23 05:10:16;;;;;;;13.68;5.68;;;15.30;99.90;;;;;;5003260;28;20036;-55
2023/08/23 05:12:42;;;;;;;11.13;6.55;;;15.20;99.90;;;;;;5004508;28;20607;-57
2023/08/23 05:15:08;;;;;;;11.27;6.32;;;15.20;99.90;;;;;;5000388;28;20038;-55
2023/08/23 05:17:33;;;;;;;13.70;6.65;;;15.30;99.90;;;;;;5005764;28;20125;-56
2023/08/23 05:19:59;;;;;;;14.15;7.50;;;15.40;99.90;;;;;;5011958;28;20041;-56
2023/08/23 05:22:24;;;;;;;18.75;7.50;;;15.40;99.90;;;;;;5013415;28;20030;-58
2023/08/23 05:24:50;;;;;;;13.52;6.90;;;15.50;99.90;;;;;;5007574;28;20046;-58
2023/08/23 05:27:15;;;;;;;14.68;7.18;;;15.60;99.90;;;;;;5003047;28;20041;-58
2023/08/23 05:29:41;;;;;;;18.67;10.00;;;15.20;99.90;;;;;;5000434;28;20049;-57
2023/08/23 05:32:06;;;;;;;17.85;11.48;;;15.50;99.90;;;;;;4995948;28;20828;-58
2023/08/23 05:34:32;;;;;;;19.85;8.60;;;15.60;99.90;;;;;;5000283;28;20046;-59
2023/08/23 05:36:57;;;;;;;16.20;8.45;;;15.60;99.90;;;;;;4999111;28;20417;-59
2023/08/23 05:39:23;;;;;;;12.18;8.15;;;15.70;99.90;;;;;;5007105;28;20042;-58
2023/08/23 05:41:48;;;;;;;17.40;7.95;;;15.70;99.90;;;;;;5009522;28;20129;-57
2023/08/23 05:44:14;;;;;;;14.70;7.93;;;15.70;99.90;;;;;;5012328;28;20029;-59
2023/08/23 05:46:40;;;;;;;13.27;8.10;;;15.80;99.90;;;;;;5002956;28;20038;-58
2023/08/23 05:49:05;;;;;;;15.27;8.50;;;15.90;99.90;;;;;;4999852;28;20775;-58
2023/08/23 05:51:31;;;;;;;14.55;7.50;;;16.00;99.90;;;;;;5000944;28;20038;-59
2023/08/23 05:53:57;;;;;;;13.95;8.05;;;16.20;99.90;;;;;;5003994;28;20033;-58
2023/08/23 05:56:24;;;;;;;15.00;8.30;;;16.10;99.90;;;;;;5002626;28;20490;-58
2023/08/23 05:58:49;;;;;;;13.27;8.60;;;16.20;99.90;;;;;;5004648;28;20084;-58
2023/08/23 06:01:15;;;;;;;15.43;9.48;;;16.10;99.90;;;;;;5012053;28;20505;-59
2023/08/23 06:03:41;;;;;;;16.38;10.27;;;16.30;99.90;;;;;;5010482;28;20045;-59
2023/08/23 06:06:07;;;;;;;15.45;9.45;;;16.40;99.90;;;;;;4999043;28;20148;-58
2023/08/23 06:08:33;;;;;;;17.85;9.82;;;16.50;99.90;;;;;;4996340;28;20142;-58
2023/08/23 06:10:59;;;;;;;23.83;10.82;;;16.60;99.90;;;;;;5004265;28;20487;-59
2023/08/23 06:13:24;;;;;;;17.70;10.20;;;16.60;99.90;;;;;;5015337;28;20125;-58
2023/08/23 06:15:50;;;;;;;21.48;11.00;;;16.70;99.90;;;;;;5014311;28;20046;-58
2023/08/23 06:18:16;;;;;;;29.73;12.57;;;16.90;99.90;;;;;;5012472;28;20827;-58
2023/08/23 06:20:43;;;;;;;27.35;12.77;;;16.90;99.90;;;;;;5023632;28;20436;-58
2023/08/23 06:23:09;;;;;;;24.27;14.07;;;16.90;99.90;;;;;;5021282;28;20401;-58
2023/08/23 06:25:34;;;;;;;25.77;12.60;;;17.00;99.90;;;;;;5023444;28;20046;-58
2023/08/23 06:28:00;;;;;;;25.52;13.05;;;17.00;99.90;;;;;;5022239;28;20132;-58
2023/08/23 06:30:26;;;;;;;22.20;12.68;;;17.10;99.90;;;;;;5023899;28;20120;-58
2023/08/23 06:32:51;;;;;;;25.88;13.55;;;17.00;99.90;;;;;;5014723;28;20038;-57
2023/08/23 06:35:18;;;;;;;29.00;14.50;;;17.10;99.90;;;;;;5009518;28;20034;-58
2023/08/23 06:37:44;;;;;;;21.02;14.68;;;17.20;99.90;;;;;;4999624;28;20044;-58
2023/08/23 06:40:11;;;;;;;24.27;14.05;;;17.30;99.90;;;;;;4998510;28;20042;-59
2023/08/23 06:42:37;;;;;;;29.85;15.20;;;17.40;99.90;;;;;;5002581;28;20060;-58
2023/08/23 06:45:04;;;;;;;30.33;14.52;;;17.70;99.90;;;;;;5019804;28;20199;-57
2023/08/23 06:47:30;;;;;;;28.10;16.25;;;17.80;99.90;;;;;;5001604;28;20088;-57
2023/08/23 06:49:55;;;;;;;31.52;16.42;;;18.00;99.90;;;;;;5005825;28;20037;-58
2023/08/23 06:52:21;;;;;;;30.83;15.63;;;18.10;99.90;;;;;;5006311;28;20041;-58
2023/08/23 06:54:46;;;;;;;28.98;15.00;;;18.20;99.90;;;;;;5003672;28;20520;-58
2023/08/23 06:57:12;;;;;;;27.98;16.77;;;18.30;99.90;;;;;;4995307;28;20300;-58
2023/08/23 06:59:38;;;;;;;24.77;15.65;;;18.40;99.90;;;;;;5005985;28;20758;-58
2023/08/23 07:02:03;;;;;;;24.92;15.32;;;18.60;99.90;;;;;;5006202;28;20037;-57
2023/08/23 07:04:29;;;;;;;28.17;15.55;;;18.60;99.90;;;;;;5005819;28;20038;-56
2023/08/23 07:06:55;;;;;;;26.58;15.38;;;18.70;99.90;;;;;;5005014;28;20826;-58
2023/08/23 07:09:20;;;;;;;27.45;14.65;;;18.80;99.90;;;;;;4998562;28;20061;-59
2023/08/23 07:11:46;;;;;;;26.65;14.95;;;18.80;99.90;;;;;;5001843;28;20045;-58
2023/08/23 07:14:12;;;;;;;27.30;15.00;;;18.90;99.90;;;;;;5003226;28;20044;-58
2023/08/23 07:16:37;;;;;;;30.38;15.13;;;19.00;99.90;;;;;;5003462;28;20095;-58
2023/08/23 07:19:03;;;;;;;24.20;13.90;;;19.10;99.90;;;;;;5004989;28;20034;-57
2023/08/23 07:21:32;;;;;;;26.88;14.00;;;19.10;99.90;;;;;;5006948;28;20494;-59
2023/08/23 07:23:57;;;;;;;25.20;15.10;;;19.20;99.90;;;;;;5005986;28;20513;-58
2023/08/23 07:26:24;;;;;;;23.15;14.80;;;19.40;99.90;;;;;;5004737;28;20042;-59
2023/08/23 07:28:49;;;;;;;24.30;15.05;;;19.50;99.90;;;;;;5005394;28;20049;-57
2023/08/23 07:31:15;;;;;;;24.50;14.32;;;19.50;99.90;;;;;;5016702;28;20056;-58
2023/08/23 07:33:41;;;;;;;24.27;13.77;;;19.60;99.90;;;;;;5002851;28;20046;-59
2023/08/23 07:36:07;;;;;;;26.95;13.23;;;19.60;99.90;;;;;;5003394;28;20033;-58
2023/08/23 07:38:33;;;;;;;25.52;14.43;;;19.80;99.90;;;;;;4995402;28;20037;-58
2023/08/23 07:41:00;;;;;;;33.45;15.10;;;19.90;99.90;;;;;;5002952;28;20029;-59
2023/08/23 07:43:26;;;;;;;25.65;13.35;;;19.90;99.90;;;;;;5000786;28;20413;-58
2023/08/23 07:45:56;;;;;;;26.45;12.63;;;20.10;99.90;;;;;;5005215;28;20572;-58
2023/08/23 07:48:22;;;;;;;26.55;13.98;;;20.10;99.90;;;;;;4994121;28;20080;-58
2023/08/23 07:50:55;;;;;;;21.92;12.52;;;20.20;99.90;;;;;;5005945;28;20064;-57
2023/08/23 07:53:22;;;;;;;22.33;13.15;;;20.20;99.90;;;;;;5000868;28;20037;-57
2023/08/23 07:55:47;;;;;;;109.70;70.32;;;20.30;99.90;;;;;;5008067;28;20478;-58
2023/08/23 07:58:14;;;;;;;25.52;13.40;;;20.30;99.90;;;;;;5005742;28;20041;-58
2023/08/23 08:00:40;;;;;;;24.92;12.85;;;20.50;99.90;;;;;;5005400;28;20053;-58
2023/08/23 08:03:06;;;;;;;25.38;13.20;;;20.60;99.90;;;;;;5006021;28;20056;-59
2023/08/23 08:05:34;;;;;;;23.17;12.02;;;20.70;99.90;;;;;;5013268;28;20114;-57
2023/08/23 08:08:00;;;;;;;22.77;10.98;;;20.70;99.90;;;;;;5009474;28;20517;-58
2023/08/23 08:10:26;;;;;;;25.77;11.68;;;20.60;99.90;;;;;;5013684;28;20029;-59
2023/08/23 08:12:51;;;;;;;24.33;11.43;;;20.70;99.90;;;;;;5014318;28;20075;-57
2023/08/23 08:15:17;;;;;;;24.30;12.77;;;20.70;99.90;;;;;;5012185;28;20046;-59
2023/08/23 08:17:43;;;;;;;23.08;12.65;;;;;;;;;;5003713;28;20045;-59
2023/08/23 08:20:09;;;;;;;20.92;10.07;;;21.00;99.90;;;;;;5007062;28;20042;-58
2023/08/23 08:22:36;;;;;;;17.05;9.82;;;21.00;99.90;;;;;;5009699;28;20515;-58
2023/08/23 08:25:02;;;;;;;22.58;10.18;;;20.90;99.90;;;;;;5020942;28;20504;-58
2023/08/23 08:27:27;;;;;;;26.85;11.15;;;21.10;99.90;;;;;;5004971;28;20042;-57
2023/08/23 08:29:53;;;;;;;23.80;11.13;;;21.20;99.90;;;;;;4994773;28;20194;-59
2023/08/23 08:32:18;;;;;;;21.30;9.90;;;21.30;99.90;;;;;;5012380;28;20044;-58
2023/08/23 08:34:44;;;;;;;24.65;9.70;;;21.40;99.90;;;;;;5007236;28;20054;-58
2023/08/23 08:37:11;;;;;;;22.08;9.73;;;21.50;99.90;;;;;;5006283;28;20041;-58
2023/08/23 08:39:36;;;;;;;21.33;9.68;;;21.60;99.90;;;;;;5005581;28;20050;-58
2023/08/23 08:42:02;;;;;;;17.35;8.73;;;21.60;99.90;;;;;;5000500;28;20582;-58
2023/08/23 08:44:28;;;;;;;19.67;10.00;;;21.70;99.90;;;;;;5015178;28;20040;-58
2023/08/23 08:46:53;;;;;;;20.75;9.68;;;21.70;99.90;;;;;;5007600;28;20038;-58
2023/08/23 08:49:19;;;;;;;19.00;10.52;;;22.70;99.90;;;;;;5006220;28;20476;-60
2023/08/23 08:51:47;;;;;;;22.23;9.75;;;21.90;99.90;;;;;;5004711;28;20062;-58
2023/08/23 08:54:15;;;;;;;20.52;9.57;;;21.90;99.90;;;;;;5021692;28;20041;-56
2023/08/23 08:56:44;;;;;;;15.95;8.35;;;21.90;99.90;;;;;;5010484;28;20796;-57
2023/08/23 08:59:10;;;;;;;19.27;9.15;;;22.00;99.90;;;;;;5004513;28;20757;-57
2023/08/23 09:01:37;;;;;;;21.25;8.80;;;22.10;99.90;;;;;;5007309;28;20030;-57
2023/08/23 09:04:03;;;;;;;23.55;8.85;;;22.20;99.90;;;;;;5007321;28;20034;-57
2023/08/23 09:06:31;;;;;;;20.60;8.38;;;22.10;99.90;;;;;;5001862;28;20045;-57
2023/08/23 09:09:00;;;;;;;17.40;9.13;;;22.20;99.90;;;;;;5005688;28;20038;-57
2023/08/23 09:11:26;;;;;;;19.17;8.98;;;22.20;99.90;;;;;;5007693;28;20037;-58
2023/08/23 09:13:52;;;;;;;24.67;8.93;;;22.20;99.90;;;;;;5005214;28;20482;-57
2023/08/23 09:16:17;;;;;;;22.45;8.80;;;22.40;99.90;;;;;;5002358;28;20760;-57
2023/08/23 09:18:44;;;;;;;18.02;9.13;;;22.50;99.90;;;;;;5002058;28;20429;-57
2023/08/23 09:21:12;;;;;;;19.67;9.27;;;22.50;99.90;;;;;;5005559;28;20088;-55
2023/08/23 09:23:37;;;;;;;24.75;10.35;;;22.50;99.90;;;;;;5004773;28;20040;-57
2023/08/23 09:26:08;;;;;;;13.95;8.57;;;22.50;99.90;;;;;;5006328;28;20033;-57
2023/08/23 09:28:34;;;;;;;142.18;87.45;;;22.50;99.90;;;;;;4992222;28;20057;-57
2023/08/23 09:31:00;;;;;;;21.52;9.48;;;22.50;99.90;;;;;;5004284;28;20494;-56
2023/08/23 09:33:25;;;;;;;24.48;9.57;;;22.50;99.90;;;;;;5000154;28;20030;-56
2023/08/23 09:35:51;;;;;;;19.55;9.05;;;22.50;99.90;;;;;;5005573;28;20144;-56
2023/08/23 09:38:19;;;;;;;20.75;8.65;;;22.60;99.90;;;;;;5006127;28;20025;-56
2023/08/23 09:40:45;;;;;;;19.70;9.18;;;22.70;99.90;;;;;;5016482;28;21105;-57
2023/08/23 09:43:12;;;;;;;19.65;7.25;;;22.80;99.90;;;;;;5009246;28;20076;-57
2023/08/23 09:45:38;;;;;;;19.13;8.68;;;22.80;99.90;;;;;;5001361;28;20480;-56
2023/08/23 09:48:05;;;;;;;15.05;7.55;;;23.00;99.90;;;;;;5000997;28;20038;-56
2023/08/23 09:50:32;;;;;;;20.02;8.48;;;22.90;99.90;;;;;;5000592;28;20117;-57
2023/08/23 09:53:07;;;;;;;20.55;9.57;;;23.00;99.90;;;;;;5002837;28;20030;-57
2023/08/23 09:55:34;;;;;;;19.92;9.00;;;23.00;99.90;;;;;;5022854;28;20132;-56
2023/08/23 09:58:01;;;;;;;21.58;9.85;;;23.00;99.90;;;;;;5022952;28;20564;-57
2023/08/23 10:00:27;;;;;;;20.88;8.65;;;23.00;99.90;;;;;;5023905;28;20041;-57
2023/08/23 10:02:56;;;;;;;16.70;7.43;;;23.10;99.90;;;;;;5023577;28;20037;-58
2023/08/23 10:05:22;;;;;;;14.15;7.75;;;23.20;99.90;;;;;;5010525;28;20057;-59
2023/08/23 10:07:47;;;;;;;17.50;9.57;;;23.40;99.90;;;;;;5002738;28;20504;-59
2023/08/23 10:10:14;;;;;;;20.80;9.02;;;23.30;99.90;;;;;;5013846;28;20034;-59
2023/08/23 10:12:43;;;;;;;21.85;9.60;;;23.20;99.90;;;;;;5019103;28;20038;-58
2023/08/23 10:15:12;;;;;;;16.58;8.13;;;23.30;99.90;;;;;;5001045;28;20426;-59
2023/08/23 10:17:39;;;;;;;17.65;7.78;;;23.20;99.90;;;;;;5010479;28;20503;-58
2023/08/23 10:20:10;;;;;;;16.58;8.18;;;23.30;99.90;;;;;;5016575;28;20397;-59
2023/08/23 10:22:36;;;;;;;19.42;8.57;;;23.40;99.90;;;;;;5018784;28;20191;-60
2023/08/23 10:25:12;;;;;;;15.30;8.32;;;23.40;99.90;;;;;;5022694;28;20120;-58
2023/08/23 10:27:39;;;;;;;16.35;8.00;;;23.40;99.90;;;;;;5020957;28;20048;-59
2023/08/23 10:30:08;;;;;;;20.48;8.30;;;23.40;99.90;;;;;;5021986;28;20189;-59
2023/08/23 10:32:36;;;;;;;28.33;8.40;;;23.40;99.90;;;;;;5017682;28;20034;-59
2023/08/23 10:35:02;;;;;;;23.60;10.30;;;23.60;99.90;;;;;;5009914;28;20502;-58
2023/08/23 10:37:28;;;;;;;17.85;8.65;;;23.50;99.90;;;;;;5000884;28;20358;-59
2023/08/23 10:39:54;;;;;;;19.85;8.73;;;23.60;99.90;;;;;;5006460;28;20030;-59
2023/08/23 10:42:21;;;;;;;18.95;7.55;;;23.60;99.90;;;;;;5001688;28;20033;-59
2023/08/23 10:44:56;;;;;;;17.10;7.30;;;23.60;99.90;;;;;;5003583;28;20040;-59
2023/08/23 10:47:22;;;;;;;15.95;6.85;;;23.90;99.90;;;;;;5006425;28;20405;-59
2023/08/23 10:49:50;;;;;;;16.02;7.65;;;23.90;99.90;;;;;;5003195;28;20033;-59
2023/08/23 10:52:15;;;;;;;15.27;7.00;;;23.90;99.90;;;;;;5000542;28;20132;-59
2023/08/23 10:54:42;;;;;;;14.05;6.35;;;23.90;99.90;;;;;;5004220;28;20136;-61
2023/08/23 10:57:08;;;;;;;17.42;6.07;;;24.00;99.90;;;;;;4999963;28;20530;-61
2023/08/23 10:59:34;;;;;;;15.70;5.55;;;24.00;99.90;;;;;;5008778;28;20115;-59
2023/08/23 11:02:00;;;;;;;12.48;5.13;;;24.00;99.90;;;;;;5011802;28;20061;-59
2023/08/23 11:04:26;;;;;;;11.50;5.03;;;24.10;99.90;;;;;;5015557;28;20650;-59
2023/08/23 11:06:51;;;;;;;13.90;5.25;;;24.10;99.90;;;;;;5020708;28;20037;-59
2023/08/23 11:09:17;;;;;;;18.05;4.82;;;24.10;99.90;;;;;;5006445;28;20045;-59
2023/08/23 11:11:43;;;;;;;11.32;5.28;;;24.00;99.90;;;;;;5003153;28;20076;-59
2023/08/23 11:14:09;;;;;;;10.05;4.00;;;24.00;99.90;;;;;;5001012;28;20029;-57
2023/08/23 11:16:41;;;;;;;10.73;4.40;;;24.00;99.90;;;;;;5007111;28;20034;-55
2023/08/23 11:19:07;;;;;;;10.75;4.63;;;24.20;99.90;;;;;;5007442;28;20485;-62
2023/08/23 11:21:33;;;;;;;11.05;4.75;;;24.20;99.90;;;;;;5009846;28;20034;-57
2023/08/23 11:24:05;;;;;;;13.90;5.03;;;24.20;99.90;;;;;;4996777;28;20041;-54
2023/08/23 11:26:37;;;;;;;9.55;3.80;;;24.20;99.90;;;;;;5009764;28;20655;-57
2023/08/23 11:29:04;;;;;;;10.93;5.20;;;24.30;99.90;;;;;;5002132;28;20683;-56
2023/08/23 11:31:32;;;;;;;8.02;4.47;;;24.40;99.90;;;;;;4994525;28;20397;-58
2023/08/23 11:33:59;;;;;;;13.55;5.18;;;24.60;99.90;;;;;;5001197;28;20042;-57
2023/08/23 11:36:26;;;;;;;11.40;5.25;;;24.50;99.90;;;;;;4997206;28;20765;-56
2023/08/23 11:38:53;;;;;;;13.05;4.55;;;24.50;99.90;;;;;;4996482;28;20565;-57
2023/08/23 11:41:28;;;;;;;12.90;4.40;;;24.50;99.90;;;;;;5001900;28;20034;-56
2023/08/23 11:43:54;;;;;;;9.52;4.70;;;24.50;99.90;;;;;;5000402;28;20093;-57
2023/08/23 11:46:20;;;;;;;8.15;4.25;;;24.50;99.90;;;;;;4996038;28;20045;-56
2023/08/23 11:48:46;;;;;;;10.43;4.65;;;24.50;99.90;;;;;;4995194;28;20135;-58
2023/08/23 11:51:11;;;;;;;12.45;4.20;;;24.50;99.90;;;;;;4997740;28;20045;-56
2023/08/23 11:53:47;;;;;;;14.15;5.05;;;24.60;99.90;;;;;;5001063;28;20038;-57
2023/08/23 11:56:14;;;;;;;11.50;5.20;;;24.60;99.90;;;;;;4996940;28;20040;-56
2023/08/23 11:58:39;;;;;;;10.18;4.80;;;24.50;99.90;;;;;;4992025;28;20038;-57
2023/08/23 12:01:05;;;;;;;12.18;6.70;;;24.60;99.90;;;;;;4993636;28;20401;-57
2023/08/23 12:03:31;;;;;;;10.57;5.88;;;24.60;99.90;;;;;;5008235;28;20336;-60
2023/08/23 12:05:57;;;;;;;9.20;4.30;;;24.70;99.90;;;;;;4998117;28;20049;-56
2023/08/23 12:08:22;;;;;;;13.60;6.07;;;24.70;99.90;;;;;;5001786;28;20042;-57
2023/08/23 12:10:48;;;;;;;13.55;5.18;;;24.70;99.90;;;;;;5004709;28;20363;-57
2023/08/23 12:13:14;;;;;;;16.83;4.60;;;24.70;99.90;;;;;;5005501;28;20076;-57
2023/08/23 12:15:40;;;;;;;9.90;4.15;;;24.70;99.90;;;;;;4997631;28;20527;-57
2023/08/23 12:18:05;;;;;;;11.75;4.78;;;24.70;99.90;;;;;;5004227;28;20118;-57
2023/08/23 12:20:31;;;;;;;10.70;4.45;;;24.80;99.90;;;;;;5003649;28;20096;-56
2023/08/23 12:22:57;;;;;;;11.65;4.50;;;24.80;99.90;;;;;;5010362;28;20033;-59
2023/08/23 12:25:23;;;;;;;8.35;4.07;;;24.80;99.90;;;;;;5000707;28;20129;-59
2023/08/23 12:27:48;;;;;;;13.40;5.28;;;24.80;99.90;;;;;;4998582;28;20034;-59
2023/08/23 12:30:14;;;;;;;11.68;4.05;;;25.10;99.90;;;;;;4996910;28;20477;-59
2023/08/23 12:32:39;;;;;;;13.15;3.90;;;24.90;99.90;;;;;;5014099;28;20401;-60
2023/08/23 12:35:06;;;;;;;8.63;3.47;;;24.90;99.90;;;;;;5022094;28;20072;-59